createdAt,value
2023-12-30T00:01:51.620Z,100115.53
2023-12-30T00:04:32.001Z,100111.81
2023-12-30T00:07:03.759Z,100109.34
2023-12-30T00:09:39.036Z,100108.22
2023-12-30T00:12:14.792Z,100105.97
2023-12-30T00:14:47.906Z,100108.47
2023-12-30T00:17:19.678Z,100114.97
2023-12-30T00:19:50.055Z,100098.69
2023-12-30T00:22:28.138Z,100112.28
2023-12-30T00:25:00.480Z,100113.63
2023-12-30T00:27:28.705Z,100136.84
2023-12-30T00:30:04.502Z,100130.81
2023-12-30T00:32:40.835Z,100136.06
2023-12-30T00:35:19.131Z,100139.78
2023-12-30T00:37:59.697Z,100134.94
2023-12-30T00:40:34.830Z,100140.47
2023-12-30T00:43:09.877Z,100140.09
2023-12-30T00:45:45.536Z,100136.97
2023-12-30T00:48:19.573Z,100135.09
2023-12-30T00:50:53.027Z,100156.91
2023-12-30T00:53:25.441Z,100165.31
2023-12-30T00:55:58.043Z,100165.75
2023-12-30T00:58:37.083Z,100167.34
2023-12-30T01:01:16.978Z,100170.38
2023-12-30T01:03:52.813Z,100183.81
2023-12-30T01:06:33.674Z,100179.38
2023-12-30T01:09:04.849Z,100192.16
2023-12-30T01:11:37.428Z,100194.28
2023-12-30T01:14:20.285Z,100202.44
2023-12-30T01:16:55.820Z,100197.31
2023-12-30T01:19:30.742Z,100197.09
2023-12-30T01:21:57.587Z,100205.13
2023-12-30T01:24:29.473Z,100207.59
2023-12-30T01:27:04.389Z,100197.63
2023-12-30T01:29:40.665Z,100204.91
2023-12-30T01:32:12.778Z,100202.66
2023-12-30T01:34:50.775Z,100218.16
2023-12-30T01:37:23.127Z,100215.44
2023-12-30T01:39:58.782Z,100213.66
2023-12-30T01:42:28.574Z,100210.97
2023-12-30T01:45:03.402Z,100212.63
2023-12-30T01:47:38.933Z,100222.41
2023-12-30T01:50:09.148Z,100223.28
2023-12-30T01:52:42.775Z,100247.72
2023-12-30T01:55:15.232Z,100239.31
2023-12-30T01:57:52.358Z,100258.69
2023-12-30T02:00:38.764Z,100268.50
2023-12-30T02:03:14.378Z,100268.56
2023-12-30T02:05:52.322Z,100272.19
2023-12-30T02:08:30.336Z,100270.16
2023-12-30T02:11:05.209Z,100262.06
2023-12-30T02:13:37.322Z,100265.84
2023-12-30T02:16:09.426Z,100268.44
2023-12-30T02:18:42.379Z,100267.22
2023-12-30T02:21:12.240Z,100277.41
2023-12-30T02:23:44.567Z,100272.16
2023-12-30T02:26:17.173Z,100273.59
2023-12-30T02:28:51.550Z,100279.84
2023-12-30T02:31:32.527Z,100286.03
2023-12-30T02:34:11.767Z,100280.22
2023-12-30T02:36:48.427Z,100279.84
2023-12-30T02:39:21.250Z,100272.97
2023-12-30T02:41:55.585Z,100283.06
2023-12-30T02:44:29.011Z,100278.91
2023-12-30T02:47:07.037Z,100269.13
2023-12-30T02:49:37.324Z,100275.50
2023-12-30T02:52:14.931Z,100276.63
2023-12-30T02:54:55.983Z,100272.91
2023-12-30T02:57:47.841Z,100277.28
2023-12-30T03:00:20.006Z,100279.34
2023-12-30T03:02:52.506Z,100292.00
2023-12-30T03:05:29.352Z,100295.34
2023-12-30T03:08:01.403Z,100293.50
2023-12-30T03:10:32.060Z,100300.63
2023-12-30T03:13:03.398Z,100311.59
2023-12-30T03:15:36.860Z,100303.09
2023-12-30T03:18:25.111Z,100298.03
2023-12-30T03:20:58.033Z,100304.66
2023-12-30T03:23:35.128Z,100303.38
2023-12-30T03:26:11.938Z,100303.19
2023-12-30T03:28:44.047Z,100306.72
2023-12-30T03:31:27.820Z,100301.94
2023-12-30T03:34:03.214Z,100312.38
2023-12-30T03:36:42.303Z,100308.34
2023-12-30T03:39:22.245Z,100310.50
2023-12-30T03:41:56.769Z,100305.44
2023-12-30T03:44:29.933Z,100314.69
2023-12-30T03:47:05.031Z,100313.97
2023-12-30T03:49:37.399Z,100324.03
2023-12-30T03:52:12.111Z,100316.97
2023-12-30T03:54:52.910Z,100315.41
2023-12-30T03:57:26.906Z,100321.41
2023-12-30T04:00:05.643Z,100322.50
2023-12-30T04:02:40.971Z,100323.56
2023-12-30T04:05:15.929Z,100327.13
2023-12-30T04:07:49.744Z,100329.91
2023-12-30T04:10:24.455Z,100330.53
2023-12-30T04:12:54.706Z,100327.72
2023-12-30T04:15:32.302Z,100329.47
2023-12-30T04:18:09.818Z,100336.69
2023-12-30T04:20:53.295Z,100345.47
2023-12-30T04:23:31.405Z,100341.38
2023-12-30T04:26:03.973Z,100329.50
2023-12-30T04:28:39.475Z,100336.69
2023-12-30T04:31:10.526Z,100329.19
2023-12-30T04:33:43.067Z,100346.19
2023-12-30T04:36:13.088Z,100343.88
2023-12-30T04:38:51.258Z,100357.03
2023-12-30T04:41:25.777Z,100381.50
2023-12-30T04:44:01.023Z,100383.44
2023-12-30T04:46:33.419Z,100364.56
2023-12-30T04:49:14.888Z,100375.06
2023-12-30T04:51:49.727Z,100375.94
2023-12-30T04:54:26.662Z,100373.50
2023-12-30T04:56:58.425Z,100378.50
2023-12-30T04:59:28.146Z,100375.34
2023-12-30T05:02:09.971Z,100375.47
2023-12-30T05:04:51.727Z,100393.59
2023-12-30T05:07:27.323Z,100384.19
2023-12-30T05:09:59.430Z,100388.06
2023-12-30T05:12:33.555Z,100389.19
2023-12-30T05:15:09.151Z,100393.84
2023-12-30T05:17:41.207Z,100402.59
2023-12-30T05:20:21.401Z,100390.72
2023-12-30T05:22:56.615Z,100398.97
2023-12-30T05:25:32.199Z,100401.28
2023-12-30T05:28:04.689Z,100404.19
2023-12-30T05:30:36.424Z,100411.06
2023-12-30T05:33:10.752Z,100413.47
2023-12-30T05:35:42.813Z,100416.06
2023-12-30T05:38:17.445Z,100414.03
2023-12-30T05:40:48.068Z,100419.44
2023-12-30T05:43:27.346Z,100431.53
2023-12-30T05:46:03.155Z,100437.56
2023-12-30T05:48:34.312Z,100431.53
2023-12-30T05:51:11.357Z,100438.97
2023-12-30T05:53:43.442Z,100440.78
2023-12-30T05:56:15.677Z,100446.97
2023-12-30T05:58:50.629Z,100441.56
2023-12-30T06:01:36.370Z,100446.47
2023-12-30T06:04:08.766Z,100442.09
2023-12-30T06:06:44.129Z,100454.31
2023-12-30T06:09:18.588Z,100449.28
2023-12-30T06:11:55.266Z,100450.97
2023-12-30T06:14:27.974Z,100455.44
2023-12-30T06:17:04.305Z,100465.88
2023-12-30T06:19:41.391Z,100470.13
2023-12-30T06:22:19.377Z,100474.00
2023-12-30T06:25:01.947Z,100475.78
2023-12-30T06:27:39.441Z,100481.16
2023-12-30T06:30:15.278Z,100478.09
2023-12-30T06:32:53.143Z,100483.22
2023-12-30T06:35:22.114Z,100481.47
2023-12-30T06:37:54.292Z,100472.81
2023-12-30T06:40:30.311Z,100471.16
2023-12-30T06:43:11.945Z,100480.53
2023-12-30T06:45:41.529Z,100479.78
2023-12-30T06:48:23.082Z,100483.91
2023-12-30T06:50:58.174Z,100479.00
2023-12-30T06:53:34.058Z,100486.22
2023-12-30T06:56:08.696Z,100493.16
2023-12-30T06:58:47.155Z,100499.72
2023-12-30T07:01:21.714Z,100492.25
2023-12-30T07:04:06.539Z,100497.41
2023-12-30T07:06:41.284Z,100503.59
2023-12-30T07:09:17.251Z,100502.44
2023-12-30T07:11:54.129Z,100505.13
2023-12-30T07:14:37.563Z,100499.47
2023-12-30T07:17:23.682Z,100506.91
2023-12-30T07:20:06.195Z,100505.38
2023-12-30T07:22:38.500Z,100514.38
2023-12-30T07:25:16.747Z,100506.00
2023-12-30T07:27:49.260Z,100520.28
2023-12-30T07:30:24.414Z,100513.06
2023-12-30T07:33:01.359Z,100510.78
2023-12-30T07:35:41.209Z,100513.59
2023-12-30T07:38:15.821Z,100524.03
2023-12-30T07:40:50.968Z,100515.28
2023-12-30T07:43:30.191Z,100523.03
2023-12-30T07:46:02.911Z,100533.97
2023-12-30T07:48:43.015Z,100540.38
2023-12-30T07:51:21.730Z,100524.94
2023-12-30T07:53:56.803Z,100536.75
2023-12-30T07:56:34.012Z,100540.75
2023-12-30T07:59:04.255Z,100544.75
2023-12-30T08:01:45.383Z,100548.84
2023-12-30T08:04:23.573Z,100543.84
2023-12-30T08:07:03.215Z,100550.66
2023-12-30T08:09:37.400Z,100545.78
2023-12-30T08:12:13.671Z,100562.13
2023-12-30T08:14:51.952Z,100546.81
2023-12-30T08:17:24.062Z,100548.38
2023-12-30T08:20:00.055Z,100542.47
2023-12-30T08:22:30.077Z,100552.38
2023-12-30T08:24:57.080Z,100545.16
2023-12-30T08:27:32.520Z,100542.97
2023-12-30T08:30:05.133Z,100553.53
2023-12-30T08:32:37.077Z,100550.84
2023-12-30T08:35:13.213Z,100548.13
2023-12-30T08:37:48.232Z,100553.53
2023-12-30T08:40:20.229Z,100551.97
2023-12-30T08:42:52.441Z,100560.22
2023-12-30T08:45:21.872Z,100560.63
2023-12-30T08:47:54.865Z,100562.16
2023-12-30T08:50:25.599Z,100553.91
2023-12-30T08:52:57.898Z,100562.28
2023-12-30T08:55:30.055Z,100568.84
2023-12-30T08:58:02.260Z,100578.38
2023-12-30T09:00:37.082Z,100568.94
2023-12-30T09:03:09.618Z,100571.81
2023-12-30T09:05:51.442Z,100579.66
2023-12-30T09:08:20.907Z,100582.34
2023-12-30T09:10:55.713Z,100587.75
2023-12-30T09:13:27.596Z,100599.22
2023-12-30T09:15:59.721Z,100593.69
2023-12-30T09:18:39.478Z,100604.13
2023-12-30T09:21:11.481Z,100605.28
2023-12-30T09:23:44.557Z,100611.44
2023-12-30T09:26:11.310Z,100610.16
2023-12-30T09:28:38.069Z,100614.81
2023-12-30T09:31:10.320Z,100614.28
2023-12-30T09:33:42.870Z,100618.25
2023-12-30T09:36:23.955Z,100623.31
2023-12-30T09:38:58.969Z,100619.56
2023-12-30T09:41:35.824Z,100618.00
2023-12-30T09:44:11.888Z,100625.22
2023-12-30T09:46:44.817Z,100629.97
2023-12-30T09:49:23.014Z,100636.00
2023-12-30T09:52:00.895Z,100643.34
2023-12-30T09:54:42.864Z,100637.59
2023-12-30T09:57:23.275Z,100630.75
2023-12-30T09:59:59.182Z,100620.66
2023-12-30T10:02:33.816Z,100623.13
2023-12-30T10:05:04.086Z,100620.31
2023-12-30T10:07:34.818Z,100610.88
2023-12-30T10:10:06.689Z,100628.81
2023-12-30T10:12:36.344Z,100624.94
2023-12-30T10:15:08.745Z,100620.03
2023-12-30T10:17:45.965Z,100621.19
2023-12-30T10:20:22.008Z,100612.03
2023-12-30T10:22:54.410Z,100599.97
2023-12-30T10:25:29.595Z,100599.16
2023-12-30T10:27:59.545Z,100600.50
2023-12-30T10:30:34.161Z,100599.75
2023-12-30T10:33:16.714Z,100601.03
2023-12-30T10:35:49.273Z,100596.63
2023-12-30T10:38:19.115Z,100594.28
2023-12-30T10:40:52.506Z,100591.81
2023-12-30T10:43:26.386Z,100589.63
2023-12-30T10:46:04.324Z,100602.38
2023-12-30T10:48:37.557Z,100600.81
2023-12-30T10:51:15.828Z,100592.69
2023-12-30T10:53:49.306Z,100610.09
2023-12-30T10:56:24.676Z,100596.84
2023-12-30T10:58:59.089Z,100599.66
2023-12-30T11:01:35.097Z,100598.63
2023-12-30T11:04:13.204Z,100599.13
2023-12-30T11:06:52.212Z,100605.59
2023-12-30T11:09:25.746Z,100606.41
2023-12-30T11:12:03.486Z,100602.78
2023-12-30T11:14:33.057Z,100603.56
2023-12-30T11:17:03.200Z,100606.88
2023-12-30T11:19:40.421Z,100601.25
2023-12-30T11:22:14.887Z,100604.19
2023-12-30T11:24:51.081Z,100601.47
2023-12-30T11:27:22.628Z,100599.19
2023-12-30T11:30:00.285Z,100602.03
2023-12-30T11:32:33.755Z,100605.59
2023-12-30T11:35:04.350Z,100606.63
2023-12-30T11:37:50.799Z,100593.44
2023-12-30T11:40:25.396Z,100599.06
2023-12-30T11:43:00.527Z,100591.63
2023-12-30T11:45:38.768Z,100581.81
2023-12-30T11:48:11.331Z,100583.59
2023-12-30T11:50:49.473Z,100589.56
2023-12-30T11:53:22.945Z,100587.97
2023-12-30T11:55:57.596Z,100579.50
2023-12-30T11:58:29.603Z,100581.00
2023-12-30T12:01:07.171Z,100570.84
2023-12-30T12:03:51.299Z,100558.19
2023-12-30T12:06:31.931Z,100552.88
2023-12-30T12:09:15.526Z,100543.19
2023-12-30T12:11:50.800Z,100544.50
2023-12-30T12:14:27.131Z,100546.56
2023-12-30T12:17:03.425Z,100539.56
2023-12-30T12:19:45.536Z,100538.03
2023-12-30T12:22:22.540Z,100532.22
2023-12-30T12:25:08.798Z,100537.00
2023-12-30T12:27:47.240Z,100523.97
2023-12-30T12:30:20.381Z,100526.44
2023-12-30T12:32:57.844Z,100528.91
2023-12-30T12:35:31.528Z,100517.69
2023-12-30T12:38:04.140Z,100514.75
2023-12-30T12:40:41.448Z,100518.81
2023-12-30T12:43:11.029Z,100510.50
2023-12-30T12:45:49.672Z,100507.13
2023-12-30T12:48:22.425Z,100504.91
2023-12-30T12:51:01.742Z,100507.13
2023-12-30T12:53:36.647Z,100509.84
2023-12-30T12:56:12.730Z,100520.84
2023-12-30T12:58:48.376Z,100502.66
2023-12-30T13:01:20.434Z,100502.88
2023-12-30T13:03:52.219Z,100498.63
2023-12-30T13:06:24.222Z,100496.84
2023-12-30T13:09:04.647Z,100495.28
2023-12-30T13:11:50.517Z,100493.50
2023-12-30T13:14:25.133Z,100489.31
2023-12-30T13:17:08.229Z,100496.28
2023-12-30T13:19:45.711Z,100499.97
2023-12-30T13:22:26.426Z,100497.97
2023-12-30T13:24:56.381Z,100492.13
2023-12-30T13:27:36.926Z,100488.28
2023-12-30T13:30:14.640Z,100490.31
2023-12-30T13:32:50.808Z,100495.03
2023-12-30T13:35:39.785Z,100485.28
2023-12-30T13:38:16.704Z,100485.16
2023-12-30T13:40:44.372Z,100481.81
2023-12-30T13:43:11.620Z,100487.97
2023-12-30T13:45:50.224Z,100480.91
2023-12-30T13:48:59.006Z,100478.31
2023-12-30T13:51:32.508Z,100481.69
2023-12-30T13:54:08.030Z,100478.63
2023-12-30T13:56:45.749Z,100465.16
2023-12-30T13:59:21.408Z,100461.69
2023-12-30T14:01:58.533Z,100463.91
2023-12-30T14:04:34.999Z,100461.19
2023-12-30T14:07:21.244Z,100455.88
2023-12-30T14:10:08.030Z,100454.91
2023-12-30T14:12:44.353Z,100454.91
2023-12-30T14:15:20.143Z,100449.31
2023-12-30T14:17:55.816Z,100447.16
2023-12-30T14:20:33.758Z,100445.03
2023-12-30T14:23:06.073Z,100437.28
2023-12-30T14:25:38.544Z,100443.13
2023-12-30T14:28:13.149Z,100457.63
2023-12-30T14:30:46.362Z,100450.78
2023-12-30T14:33:19.143Z,100445.25
2023-12-30T14:35:51.877Z,100447.88
2023-12-30T14:38:23.385Z,100448.84
2023-12-30T14:40:55.125Z,100454.69
2023-12-30T14:43:36.103Z,100458.31
2023-12-30T14:46:11.892Z,100448.53
2023-12-30T14:48:46.128Z,100453.72
2023-12-30T14:51:20.357Z,100452.13
2023-12-30T14:53:54.872Z,100445.94
2023-12-30T14:56:29.641Z,100449.88
2023-12-30T14:59:10.148Z,100455.41
2023-12-30T15:01:45.012Z,100451.69
2023-12-30T15:04:20.378Z,100447.75
2023-12-30T15:06:52.685Z,100437.31
2023-12-30T15:09:19.915Z,100442.03
2023-12-30T15:11:56.966Z,100435.84
2023-12-30T15:14:35.531Z,100434.63
2023-12-30T15:17:16.347Z,100430.47
2023-12-30T15:19:48.733Z,100441.44
2023-12-30T15:22:22.698Z,100430.53
2023-12-30T15:25:00.828Z,100420.56
2023-12-30T15:27:38.227Z,100431.56
2023-12-30T15:30:19.937Z,100425.25
2023-12-30T15:32:49.157Z,100428.28
2023-12-30T15:35:24.493Z,100435.47
2023-12-30T15:38:05.945Z,100431.88
2023-12-30T15:40:47.094Z,100431.88
2023-12-30T15:43:28.296Z,100431.63
2023-12-30T15:46:05.796Z,100424.34
2023-12-30T15:48:40.094Z,100429.72
2023-12-30T15:51:23.486Z,100424.84
2023-12-30T15:53:57.325Z,100428.69
2023-12-30T15:56:41.726Z,100423.97
2023-12-30T15:59:16.953Z,100427.34
2023-12-30T16:02:00.920Z,100421.94
2023-12-30T16:04:39.414Z,100422.47
2023-12-30T16:07:10.688Z,100410.94
2023-12-30T16:09:40.125Z,100410.69
2023-12-30T16:12:10.008Z,100414.06
2023-12-30T16:14:47.552Z,100415.84
2023-12-30T16:17:19.466Z,100419.78
2023-12-30T16:19:49.667Z,100415.50
2023-12-30T16:22:26.512Z,100414.06
2023-12-30T16:25:05.216Z,100411.25
2023-12-30T16:27:40.602Z,100416.06
2023-12-30T16:30:13.777Z,100412.53
2023-12-30T16:32:49.140Z,100410.97
2023-12-30T16:35:23.316Z,100412.56
2023-12-30T16:37:59.613Z,100409.69
2023-12-30T16:40:31.780Z,100404.44
2023-12-30T16:43:06.355Z,100409.03
2023-12-30T16:45:41.275Z,100397.50
2023-12-30T16:48:13.728Z,100397.19
2023-12-30T16:50:59.436Z,100397.63
2023-12-30T16:53:35.577Z,100399.22
2023-12-30T16:56:08.651Z,100391.53
2023-12-30T16:58:48.780Z,100386.59
2023-12-30T17:01:23.909Z,100393.97
2023-12-30T17:03:52.187Z,100387.69
2023-12-30T17:06:19.261Z,100386.31
2023-12-30T17:08:51.325Z,100388.66
2023-12-30T17:11:30.472Z,100381.28
2023-12-30T17:14:05.333Z,100383.19
2023-12-30T17:16:45.911Z,100383.00
2023-12-30T17:19:21.784Z,100370.63
2023-12-30T17:22:04.875Z,100371.78
2023-12-30T17:24:47.724Z,100369.53
2023-12-30T17:27:29.823Z,100374.19
2023-12-30T17:29:59.252Z,100373.97
2023-12-30T17:32:36.778Z,100367.38
2023-12-30T17:35:12.682Z,100372.09
2023-12-30T17:37:45.142Z,100365.91
2023-12-30T17:40:21.984Z,100368.59
2023-12-30T17:43:03.397Z,100366.97
2023-12-30T17:45:38.621Z,100373.41
2023-12-30T17:48:17.147Z,100373.34
2023-12-30T17:50:58.490Z,100370.28
2023-12-30T17:53:34.724Z,100367.47
2023-12-30T17:56:18.622Z,100368.97
2023-12-30T17:58:51.689Z,100371.66
2023-12-30T18:01:22.988Z,100363.47
2023-12-30T18:03:55.694Z,100359.56
2023-12-30T18:06:32.979Z,100364.94
2023-12-30T18:09:12.071Z,100357.78
2023-12-30T18:11:53.685Z,100356.44
2023-12-30T18:14:43.657Z,100348.78
2023-12-30T18:17:21.896Z,100356.53
2023-12-30T18:19:58.095Z,100349.66
2023-12-30T18:22:35.047Z,100356.75
2023-12-30T18:25:13.581Z,100342.75
2023-12-30T18:27:50.765Z,100358.66
2023-12-30T18:30:30.725Z,100354.72
2023-12-30T18:33:08.931Z,100353.28
2023-12-30T18:35:57.111Z,100349.56
2023-12-30T18:38:26.696Z,100354.72
2023-12-30T18:41:04.726Z,100352.47
2023-12-30T18:43:37.770Z,100359.09
2023-12-30T18:46:15.489Z,100359.53
2023-12-30T18:48:56.753Z,100359.09
2023-12-30T18:51:32.348Z,100360.34
2023-12-30T18:54:10.409Z,100369.63
2023-12-30T18:56:49.610Z,100360.88
2023-12-30T18:59:25.301Z,100343.59
2023-12-30T19:02:00.560Z,100350.34
2023-12-30T19:04:38.275Z,100341.56
2023-12-30T19:07:12.780Z,100335.63
2023-12-30T19:09:47.340Z,100338.22
2023-12-30T19:12:29.991Z,100321.63
2023-12-30T19:15:10.153Z,100323.41
2023-12-30T19:17:49.715Z,100322.50
2023-12-30T19:20:34.283Z,100319.94
2023-12-30T19:23:12.113Z,100317.50
2023-12-30T19:25:51.536Z,100310.84
2023-12-30T19:28:34.304Z,100301.44
2023-12-30T19:31:07.194Z,100306.91
2023-12-30T19:33:45.240Z,100301.44
2023-12-30T19:36:19.783Z,100293.34
2023-12-30T19:38:48.313Z,100291.44
2023-12-30T19:41:23.733Z,100293.44
2023-12-30T19:44:01.664Z,100294.47
2023-12-30T19:46:37.069Z,100285.84
2023-12-30T19:49:11.872Z,100283.94
2023-12-30T19:51:47.441Z,100277.88
2023-12-30T19:54:28.325Z,100272.38
2023-12-30T19:57:04.412Z,100269.56
2023-12-30T19:59:43.393Z,100269.31
2023-12-30T20:02:20.365Z,100262.94
2023-12-30T20:04:58.510Z,100261.03
2023-12-30T20:07:39.592Z,100251.84
2023-12-30T20:10:10.682Z,100256.44
2023-12-30T20:12:52.090Z,100259.34
2023-12-30T20:15:24.735Z,100257.44
2023-12-30T20:18:04.718Z,100254.00
2023-12-30T20:20:42.926Z,100249.13
2023-12-30T20:23:18.042Z,100244.88
2023-12-30T20:26:01.117Z,100243.94
2023-12-30T20:28:38.904Z,100243.59
2023-12-30T20:31:18.004Z,100243.94
2023-12-30T20:33:53.330Z,100238.66
2023-12-30T20:36:37.598Z,100240.13
2023-12-30T20:39:22.282Z,100244.25
2023-12-30T20:42:12.790Z,100224.44
2023-12-30T20:44:42.640Z,100219.84
2023-12-30T20:47:20.876Z,100224.19
2023-12-30T20:49:53.224Z,100221.28
2023-12-30T20:52:29.051Z,100225.00
2023-12-30T20:55:13.650Z,100225.22
2023-12-30T20:57:46.135Z,100212.09
2023-12-30T21:00:16.091Z,100210.84
2023-12-30T21:02:55.409Z,100202.78
2023-12-30T21:05:38.843Z,100196.16
2023-12-30T21:08:15.652Z,100198.06
2023-12-30T21:10:51.551Z,100192.34
2023-12-30T21:13:35.867Z,100192.78
2023-12-30T21:16:16.182Z,100182.47
2023-12-30T21:19:00.372Z,100174.50
2023-12-30T21:21:37.913Z,100168.13
2023-12-30T21:24:13.362Z,100165.84
2023-12-30T21:26:51.381Z,100166.78
2023-12-30T21:29:27.168Z,100167.44
2023-12-30T21:32:05.395Z,100170.91
2023-12-30T21:34:40.650Z,100174.84
2023-12-30T21:37:25.370Z,100166.28
2023-12-30T21:40:05.495Z,100163.41
2023-12-30T21:42:39.589Z,100158.66
2023-12-30T21:45:21.129Z,100158.66
2023-12-30T21:47:54.966Z,100157.34
2023-12-30T21:50:30.878Z,100152.41
2023-12-30T21:53:05.471Z,100150.28
2023-12-30T21:55:37.649Z,100140.53
2023-12-30T21:58:12.252Z,100145.59
2023-12-30T22:00:46.818Z,100149.53
2023-12-30T22:03:22.897Z,100135.59
2023-12-30T22:06:01.640Z,100140.88
2023-12-30T22:08:34.600Z,100125.06
2023-12-30T22:11:03.649Z,100122.81
2023-12-30T22:13:43.897Z,100129.56
2023-12-30T22:16:20.248Z,100129.56
2023-12-30T22:19:01.239Z,100130.00
2023-12-30T22:21:33.971Z,100120.69
2023-12-30T22:24:11.429Z,100121.94
2023-12-30T22:26:46.968Z,100115.66
2023-12-30T22:29:21.473Z,100114.88
2023-12-30T22:32:06.754Z,100111.63
2023-12-30T22:34:42.761Z,100106.34
2023-12-30T22:37:28.440Z,100104.19
2023-12-30T22:40:06.213Z,100094.13
2023-12-30T22:42:42.113Z,100104.75
2023-12-30T22:45:18.036Z,100098.41
2023-12-30T22:47:55.718Z,100095.66
2023-12-30T22:50:28.297Z,100086.84
2023-12-30T22:53:03.373Z,100088.94
2023-12-30T22:55:43.936Z,100088.16
2023-12-30T22:58:15.984Z,100086.38
2023-12-30T23:00:56.917Z,100096.34
2023-12-30T23:03:29.382Z,100098.38
2023-12-30T23:06:01.412Z,100088.09
2023-12-30T23:08:37.728Z,100089.22
2023-12-30T23:11:09.940Z,100082.72
2023-12-30T23:13:45.670Z,100082.47
2023-12-30T23:16:24.777Z,100082.72
2023-12-30T23:18:57.473Z,100077.44
2023-12-30T23:21:37.575Z,100070.47
2023-12-30T23:24:10.142Z,100060.38
2023-12-30T23:26:47.755Z,100055.03
2023-12-30T23:29:20.635Z,100050.09
2023-12-30T23:31:55.437Z,100042.81
2023-12-30T23:34:39.176Z,100039.91
2023-12-30T23:37:22.193Z,100041.22
2023-12-30T23:39:52.965Z,100031.72
2023-12-30T23:42:35.881Z,100023.31
2023-12-30T23:45:11.271Z,100024.88
2023-12-30T23:47:47.657Z,100014.25
2023-12-30T23:50:22.814Z,100004.34
2023-12-30T23:52:57.748Z,100003.47
2023-12-30T23:55:38.000Z,99994.16
2023-12-30T23:58:15.612Z,99982.72
